createdAt,value
2019-04-01T00:00:40.382Z,0
2019-04-01T00:01:40.317Z,0
2019-04-01T00:02:40.286Z,0
2019-04-01T00:03:40.349Z,0
2019-04-01T00:04:40.225Z,0
2019-04-01T00:05:40.195Z,0
2019-04-01T00:06:40.158Z,0
2019-04-01T00:07:40.137Z,0
2019-04-01T00:08:40.132Z,0
2019-04-01T00:09:41.282Z,0
2019-04-01T00:10:40.062Z,0
2019-04-01T00:11:40.277Z,0
2019-04-01T00:12:39.987Z,0
2019-04-01T00:13:39.973Z,0
2019-04-01T00:14:39.986Z,0
2019-04-01T00:15:39.900Z,0
2019-04-01T00:16:39.871Z,0
2019-04-01T00:17:39.848Z,0
2019-04-01T00:18:39.813Z,0
2019-04-01T00:19:39.795Z,0
2019-04-01T00:20:39.754Z,0
2019-04-01T00:21:39.720Z,0
2019-04-01T00:22:39.934Z,0
2019-04-01T00:23:39.673Z,0
2019-04-01T00:24:39.644Z,0
2019-04-01T00:25:39.606Z,0
2019-04-01T00:26:39.582Z,0
2019-04-01T00:27:39.543Z,0
2019-04-01T00:28:39.514Z,0
2019-04-01T00:29:39.486Z,0
2019-04-01T00:30:39.457Z,0
2019-04-01T00:31:39.426Z,0
2019-04-01T00:32:39.400Z,0
2019-04-01T00:33:39.363Z,0
2019-04-01T00:34:39.340Z,0
2019-04-01T00:35:39.393Z,0
2019-04-01T00:36:39.288Z,0
2019-04-01T00:37:39.247Z,0
2019-04-01T00:38:39.027Z,0
2019-04-01T00:39:39.210Z,0
2019-04-01T00:40:39.160Z,0
2019-04-01T00:41:39.127Z,0
2019-04-01T00:42:39.097Z,0
2019-04-01T00:43:39.067Z,0
2019-04-01T00:44:42.701Z,0
2019-04-01T00:45:39.020Z,0
2019-04-01T00:46:38.990Z,0
2019-04-01T00:47:38.948Z,0
2019-04-01T00:48:38.914Z,0
2019-04-01T00:49:38.890Z,0
2019-04-01T00:50:40.068Z,0
2019-04-01T00:51:38.826Z,0
2019-04-01T00:52:38.565Z,0
2019-04-01T00:53:38.758Z,0
2019-04-01T00:54:38.738Z,0
2019-04-01T00:55:38.713Z,0
2019-04-01T00:56:38.672Z,0
2019-04-01T00:57:38.652Z,0
2019-04-01T00:58:40.166Z,0
2019-04-01T00:59:38.635Z,0
2019-04-01T01:00:38.560Z,0
2019-04-01T01:01:38.290Z,0
2019-04-01T01:02:38.499Z,0
2019-04-01T01:03:38.465Z,0
2019-04-01T01:04:38.440Z,0
2019-04-01T01:05:38.417Z,0
2019-04-01T01:06:38.376Z,0
2019-04-01T01:07:38.348Z,0
2019-04-01T01:08:38.327Z,0
2019-04-01T01:09:38.284Z,0
2019-04-01T01:10:38.268Z,0
2019-04-01T01:11:38.241Z,0
2019-04-01T01:12:38.227Z,0
2019-04-01T01:13:38.171Z,0
2019-04-01T01:14:38.138Z,0
2019-04-01T01:15:38.100Z,0
2019-04-01T01:16:38.082Z,0
2019-04-01T01:17:38.049Z,0
2019-04-01T01:18:38.015Z,0
2019-04-01T01:19:37.990Z,0
2019-04-01T01:20:37.979Z,0
2019-04-01T01:21:37.922Z,0
2019-04-01T01:22:37.901Z,0
2019-04-01T01:23:37.872Z,0
2019-04-01T01:24:39.717Z,0
2019-04-01T01:25:37.896Z,0
2019-04-01T01:26:37.780Z,0
2019-04-01T01:27:37.507Z,0
2019-04-01T01:28:37.722Z,0
2019-04-01T01:29:37.693Z,0
2019-04-01T01:30:37.648Z,0
2019-04-01T01:31:37.620Z,0
2019-04-01T01:32:37.591Z,0
2019-04-01T01:33:37.567Z,0
2019-04-01T01:34:37.533Z,0
2019-04-01T01:35:37.273Z,0
2019-04-01T01:36:37.482Z,0
2019-04-01T01:37:37.525Z,0
2019-04-01T01:38:37.414Z,0
2019-04-01T01:39:37.385Z,0
2019-04-01T01:40:37.120Z,0
2019-04-01T01:41:37.319Z,0
2019-04-01T01:42:37.301Z,0
2019-04-01T01:43:37.264Z,0
2019-04-01T01:44:37.234Z,0
2019-04-01T01:45:37.197Z,0
2019-04-01T01:46:37.175Z,0
2019-04-01T01:47:37.143Z,0
2019-04-01T01:48:37.171Z,0
2019-04-01T01:49:37.087Z,0
2019-04-01T01:50:37.063Z,0
2019-04-01T01:51:37.020Z,0
2019-04-01T01:52:36.991Z,0
2019-04-01T01:53:36.953Z,0
2019-04-01T01:54:36.921Z,0
2019-04-01T01:55:36.899Z,0
2019-04-01T01:56:36.881Z,0
2019-04-01T01:57:36.833Z,0
2019-04-01T01:58:36.804Z,0
2019-04-01T01:59:36.774Z,0
2019-04-01T02:00:37.942Z,0
2019-04-01T02:01:36.718Z,0
2019-04-01T02:02:36.694Z,0
2019-04-01T02:03:36.660Z,0
2019-04-01T02:04:36.623Z,0
2019-04-01T02:05:36.594Z,0
2019-04-01T02:06:36.563Z,0
2019-04-01T02:07:36.532Z,0
2019-04-01T02:08:36.502Z,0
2019-04-01T02:09:36.483Z,0
2019-04-01T02:10:36.444Z,0
2019-04-01T02:11:36.410Z,0
2019-04-01T02:12:36.388Z,0
2019-04-01T02:13:36.358Z,0
2019-04-01T02:14:36.322Z,0
2019-04-01T02:15:36.295Z,0
2019-04-01T02:16:36.259Z,0
2019-04-01T02:17:36.226Z,0
2019-04-01T02:18:36.292Z,0
2019-04-01T02:19:36.164Z,0
2019-04-01T02:20:36.128Z,0
2019-04-01T02:21:36.121Z,0
2019-04-01T02:22:36.076Z,0
2019-04-01T02:23:36.041Z,0
2019-04-01T02:24:36.022Z,0
2019-04-01T02:25:35.984Z,0
2019-04-01T02:26:35.949Z,0
2019-04-01T02:27:35.917Z,0
2019-04-01T02:28:35.882Z,0
2019-04-01T02:29:35.851Z,0
2019-04-01T02:30:35.840Z,0
2019-04-01T02:31:35.808Z,0
2019-04-01T02:32:35.809Z,0
2019-04-01T02:33:35.774Z,0
2019-04-01T02:34:35.754Z,0
2019-04-01T02:35:35.686Z,0
2019-04-01T02:36:35.648Z,0
2019-04-01T02:37:35.629Z,0
2019-04-01T02:38:35.602Z,0
2019-04-01T02:39:35.559Z,0
2019-04-01T02:40:35.555Z,0
2019-04-01T02:41:35.279Z,0
2019-04-01T02:42:35.484Z,0
2019-04-01T02:43:35.448Z,0
2019-04-01T02:44:35.403Z,0
2019-04-01T02:45:35.496Z,0
2019-04-01T02:46:35.388Z,0
2019-04-01T02:47:35.307Z,0
2019-04-01T02:48:35.423Z,0
2019-04-01T02:49:35.261Z,0
2019-04-01T02:50:35.240Z,0
2019-04-01T02:51:34.961Z,0
2019-04-01T02:52:35.171Z,0
2019-04-01T02:53:35.141Z,0
2019-04-01T02:54:35.151Z,0
2019-04-01T02:55:34.860Z,0
2019-04-01T02:56:35.113Z,0
2019-04-01T02:57:35.032Z,0
2019-04-01T02:58:34.985Z,0
2019-04-01T02:59:35.065Z,0
2019-04-01T03:00:34.944Z,0
2019-04-01T03:01:34.684Z,0
2019-04-01T03:02:34.853Z,0
2019-04-01T03:03:34.837Z,0
2019-04-01T03:04:34.807Z,0
2019-04-01T03:05:34.928Z,0
2019-04-01T03:06:34.895Z,0
2019-04-01T03:07:34.702Z,0
2019-04-01T03:08:34.674Z,0
2019-04-01T03:09:34.653Z,0
2019-04-01T03:10:34.588Z,0
2019-04-01T03:11:34.604Z,0
2019-04-01T03:12:34.607Z,0
2019-04-01T03:13:34.638Z,0
2019-04-01T03:14:34.344Z,0
2019-04-01T03:15:34.769Z,0
2019-04-01T03:16:34.523Z,0
2019-04-01T03:17:34.435Z,0
2019-04-01T03:18:34.373Z,0
2019-04-01T03:19:34.128Z,0
2019-04-01T03:20:34.312Z,0
2019-04-01T03:21:34.271Z,0
2019-04-01T03:22:34.230Z,0
2019-04-01T03:23:34.199Z,0
2019-04-01T03:24:33.963Z,0
2019-04-01T03:25:34.145Z,0
2019-04-01T03:26:34.120Z,0
2019-04-01T03:27:34.077Z,0
2019-04-01T03:28:34.044Z,0
2019-04-01T03:29:33.819Z,0
2019-04-01T03:30:34.086Z,0
2019-04-01T03:31:33.978Z,0
2019-04-01T03:32:33.968Z,0
2019-04-01T03:33:33.672Z,0
2019-04-01T03:34:33.968Z,0
2019-04-01T03:35:33.856Z,0
2019-04-01T03:36:33.807Z,0
2019-04-01T03:37:33.527Z,0
2019-04-01T03:38:37.338Z,0
2019-04-01T03:39:33.751Z,0
2019-04-01T03:40:33.677Z,0
2019-04-01T03:41:33.667Z,0
2019-04-01T03:42:33.606Z,0
2019-04-01T03:43:33.593Z,0
2019-04-01T03:44:33.576Z,0
2019-04-01T03:45:33.537Z,0
2019-04-01T03:46:33.517Z,0
2019-04-01T03:47:33.461Z,0
2019-04-01T03:48:33.204Z,0
2019-04-01T03:49:33.411Z,0
2019-04-01T03:50:33.580Z,0
2019-04-01T03:51:33.327Z,0
2019-04-01T03:52:33.304Z,0
2019-04-01T03:53:33.259Z,0
2019-04-01T03:54:33.251Z,0
2019-04-01T03:55:33.198Z,0
2019-04-01T03:56:33.181Z,0
2019-04-01T03:57:33.260Z,0
2019-04-01T03:58:33.112Z,0
2019-04-01T03:59:33.202Z,0
2019-04-01T04:00:32.589Z,0
2019-04-01T04:01:37.611Z,0
2019-04-01T04:02:32.994Z,0
2019-04-01T04:03:32.968Z,0
2019-04-01T04:04:32.746Z,0
2019-04-01T04:05:32.907Z,0
2019-04-01T04:06:32.881Z,0
2019-04-01T04:07:32.845Z,0
2019-04-01T04:08:32.812Z,0
2019-04-01T04:09:32.765Z,0
2019-04-01T04:10:32.732Z,0
2019-04-01T04:11:32.702Z,0
2019-04-01T04:12:32.678Z,0
2019-04-01T04:13:32.639Z,0
2019-04-01T04:14:32.729Z,0
2019-04-01T04:15:32.575Z,0
2019-04-01T04:16:32.559Z,0
2019-04-01T04:17:32.516Z,0
2019-04-01T04:18:32.483Z,0
2019-04-01T04:19:32.441Z,0
2019-04-01T04:20:32.550Z,0
2019-04-01T04:21:33.578Z,0
2019-04-01T04:22:32.367Z,0
2019-04-01T04:23:32.329Z,0
2019-04-01T04:24:32.337Z,0
2019-04-01T04:25:32.258Z,0
2019-04-01T04:26:32.232Z,0
2019-04-01T04:27:32.232Z,0
2019-04-01T04:28:31.951Z,0
2019-04-01T04:29:32.140Z,0
2019-04-01T04:30:32.104Z,0
2019-04-01T04:31:32.077Z,0
2019-04-01T04:32:32.058Z,0
2019-04-01T04:33:32.004Z,0
2019-04-01T04:34:31.984Z,0
2019-04-01T04:35:31.939Z,0
2019-04-01T04:36:31.917Z,0
2019-04-01T04:37:31.908Z,0
2019-04-01T04:38:31.846Z,0
2019-04-01T04:39:31.816Z,0
2019-04-01T04:40:31.793Z,0
2019-04-01T04:41:31.984Z,0
2019-04-01T04:42:31.488Z,0
2019-04-01T04:43:31.706Z,0
2019-04-01T04:44:31.661Z,0
2019-04-01T04:45:31.405Z,0
2019-04-01T04:46:31.605Z,0
2019-04-01T04:47:31.561Z,0
2019-04-01T04:48:31.546Z,0
2019-04-01T04:49:31.503Z,0
2019-04-01T04:50:31.477Z,0
2019-04-01T04:51:31.442Z,0
2019-04-01T04:52:31.399Z,0
2019-04-01T04:53:31.376Z,0
2019-04-01T04:54:31.343Z,0
2019-04-01T04:55:31.310Z,5
2019-04-01T04:56:31.271Z,5
2019-04-01T04:57:31.246Z,5
2019-04-01T04:58:31.219Z,5
2019-04-01T04:59:30.943Z,5
2019-04-01T05:00:31.150Z,5
2019-04-01T05:01:31.121Z,10
2019-04-01T05:02:34.106Z,10
2019-04-01T05:03:31.054Z,10
2019-04-01T05:04:31.029Z,10
2019-04-01T05:05:30.989Z,15
2019-04-01T05:06:31.050Z,15
2019-04-01T05:07:33.827Z,15
2019-04-01T05:08:30.918Z,20
2019-04-01T05:09:30.625Z,20
2019-04-01T05:10:30.803Z,20
2019-04-01T05:11:30.810Z,25
2019-04-01T05:12:30.768Z,25
2019-04-01T05:13:30.745Z,30
2019-04-01T05:14:30.718Z,30
2019-04-01T05:15:30.682Z,35
2019-04-01T05:16:31.510Z,35
2019-04-01T05:17:30.609Z,35
2019-04-01T05:18:30.592Z,40
2019-04-01T05:19:30.552Z,40
2019-04-01T05:20:30.517Z,45
2019-04-01T05:21:30.484Z,45
2019-04-01T05:22:30.458Z,50
2019-04-01T05:23:30.418Z,50
2019-04-01T05:24:30.398Z,55
2019-04-01T05:25:31.974Z,55
2019-04-01T05:26:30.340Z,60
2019-04-01T05:27:30.939Z,65
2019-04-01T05:28:31.371Z,65
2019-04-01T05:29:30.008Z,70
2019-04-01T05:30:30.839Z,70
2019-04-01T05:31:30.269Z,75
2019-04-01T05:32:30.226Z,75
2019-04-01T05:33:30.106Z,80
2019-04-01T05:34:30.076Z,80
2019-04-01T05:35:30.047Z,85
2019-04-01T05:36:30.884Z,85
2019-04-01T05:37:29.748Z,90
2019-04-01T05:38:29.769Z,95
2019-04-01T05:39:29.954Z,95
2019-04-01T05:40:29.994Z,100
2019-04-01T05:41:29.873Z,100
2019-04-01T05:42:29.837Z,105
2019-04-01T05:43:29.794Z,105
2019-04-01T05:44:29.784Z,110
2019-04-01T05:45:29.734Z,110
2019-04-01T05:46:29.705Z,115
2019-04-01T05:47:29.676Z,115
2019-04-01T05:48:29.637Z,120
2019-04-01T05:49:29.609Z,120
2019-04-01T05:50:29.578Z,125
2019-04-01T05:51:29.541Z,125
2019-04-01T05:52:29.572Z,130
2019-04-01T05:53:29.481Z,130
2019-04-01T05:54:29.456Z,135
2019-04-01T05:55:29.466Z,135
2019-04-01T05:56:32.127Z,140
2019-04-01T05:57:32.059Z,140
2019-04-01T05:58:32.884Z,140
2019-04-01T05:59:31.519Z,145
2019-04-01T06:00:32.583Z,145
2019-04-01T06:01:31.767Z,145
2019-04-01T06:02:32.184Z,145
2019-04-01T06:03:30.435Z,150
2019-04-01T06:04:32.487Z,150
2019-04-01T06:05:31.690Z,155
2019-04-01T06:06:30.947Z,155
2019-04-01T06:07:31.677Z,155
2019-04-01T06:08:31.841Z,160
2019-04-01T06:09:31.671Z,160
2019-04-01T06:10:32.057Z,165
2019-04-01T06:11:30.372Z,165
2019-04-01T06:12:33.316Z,170
2019-04-01T06:13:31.459Z,170
2019-04-01T06:14:30.849Z,170
2019-04-01T06:15:31.376Z,175
2019-04-01T06:16:31.761Z,175
2019-04-01T06:17:30.651Z,175
2019-04-01T06:18:31.040Z,180
2019-04-01T06:19:31.028Z,180
2019-04-01T06:20:30.374Z,180
2019-04-01T06:21:30.312Z,185
2019-04-01T06:22:30.695Z,185
2019-04-01T06:23:30.613Z,185
2019-04-01T06:24:34.075Z,190
2019-04-01T06:25:31.632Z,190
2019-04-01T06:26:30.785Z,195
2019-04-01T06:27:32.984Z,195
2019-04-01T06:28:30.315Z,195
2019-04-01T06:29:30.222Z,195
2019-04-01T06:30:32.895Z,200
2019-04-01T06:31:31.678Z,200
2019-04-01T06:32:29.691Z,200
2019-04-01T06:33:30.760Z,205
2019-04-01T06:34:30.050Z,205
2019-04-01T06:35:30.261Z,205
2019-04-01T06:36:30.681Z,210
2019-04-01T06:37:29.409Z,210
2019-04-01T06:38:30.769Z,210
2019-04-01T06:39:29.793Z,210
2019-04-01T06:40:30.584Z,215
2019-04-01T06:41:29.849Z,220
2019-04-01T06:42:29.958Z,215
2019-04-01T06:43:28.284Z,215
2019-04-01T06:44:30.259Z,220
2019-04-01T06:45:30.759Z,220
2019-04-01T06:46:29.061Z,220
2019-04-01T06:47:30.433Z,225
2019-04-01T06:48:29.518Z,225
2019-04-01T06:49:30.292Z,225
2019-04-01T06:50:29.264Z,230
2019-04-01T06:51:30.785Z,230
2019-04-01T06:52:30.578Z,230
2019-04-01T06:53:29.865Z,230
2019-04-01T06:54:29.924Z,235
2019-04-01T06:55:30.384Z,240
2019-04-01T06:56:29.517Z,235
2019-04-01T06:57:30.172Z,235
2019-04-01T06:58:29.694Z,240
2019-04-01T06:59:29.878Z,240
2019-04-01T07:00:29.885Z,240
2019-04-01T07:01:30.198Z,245
2019-04-01T07:02:30.758Z,240
2019-04-01T07:03:29.625Z,245
2019-04-01T07:04:29.778Z,245
2019-04-01T07:05:30.471Z,245
2019-04-01T07:06:29.235Z,245
2019-04-01T07:07:30.595Z,245
2019-04-01T07:08:29.576Z,250
2019-04-01T07:09:29.052Z,250
2019-04-01T07:10:32.890Z,250
2019-04-01T07:11:31.369Z,250
2019-04-01T07:12:29.549Z,250
2019-04-01T07:13:29.795Z,250
2019-04-01T07:14:28.868Z,255
2019-04-01T07:15:28.534Z,255
2019-04-01T07:16:32.060Z,255
2019-04-01T07:17:29.585Z,255
2019-04-01T07:18:29.698Z,255
2019-04-01T07:19:29.457Z,260
2019-04-01T07:20:29.482Z,260
2019-04-01T07:21:31.016Z,260
2019-04-01T07:22:29.430Z,260
2019-04-01T07:23:29.023Z,260
2019-04-01T07:24:29.421Z,260
2019-04-01T07:25:28.156Z,260
2019-04-01T07:26:29.015Z,265
2019-04-01T07:27:29.952Z,265
2019-04-01T07:28:28.852Z,265
2019-04-01T07:29:28.975Z,265
2019-04-01T07:30:29.233Z,265
2019-04-01T07:31:29.696Z,265
2019-04-01T07:32:29.899Z,270
2019-04-01T07:33:28.556Z,270
2019-04-01T07:34:29.096Z,270
2019-04-01T07:35:28.603Z,270
2019-04-01T07:36:28.277Z,270
2019-04-01T07:37:27.804Z,270
2019-04-01T07:38:28.072Z,270
2019-04-01T07:39:28.640Z,270
2019-04-01T07:40:28.389Z,270
2019-04-01T07:41:28.134Z,275
2019-04-01T07:42:28.893Z,275
2019-04-01T07:43:28.260Z,275
2019-04-01T07:44:28.466Z,275
2019-04-01T07:45:28.108Z,275
2019-04-01T07:46:28.606Z,275
2019-04-01T07:47:28.463Z,275
2019-04-01T07:48:27.925Z,275
2019-04-01T07:49:28.226Z,275
2019-04-01T07:50:28.543Z,280
2019-04-01T07:51:29.437Z,280
2019-04-01T07:52:29.416Z,280
2019-04-01T07:53:27.809Z,280
2019-04-01T07:54:29.626Z,280
2019-04-01T07:55:29.425Z,280
2019-04-01T07:56:30.675Z,280
2019-04-01T07:57:28.450Z,280
2019-04-01T07:58:29.120Z,280
2019-04-01T07:59:27.422Z,280
2019-04-01T08:00:28.412Z,285
2019-04-01T08:01:30.224Z,285
2019-04-01T08:02:27.623Z,285
2019-04-01T08:03:27.709Z,290
2019-04-01T08:04:27.482Z,285
2019-04-01T08:05:31.861Z,285
2019-04-01T08:06:28.923Z,285
2019-04-01T08:07:28.158Z,285
2019-04-01T08:08:27.441Z,285
2019-04-01T08:09:27.016Z,285
2019-04-01T08:10:28.592Z,290
2019-04-01T08:11:27.028Z,290
2019-04-01T08:12:30.491Z,290
2019-04-01T08:13:27.978Z,290
2019-04-01T08:14:28.194Z,290
2019-04-01T08:15:30.665Z,290
2019-04-01T08:16:27.190Z,290
2019-04-01T08:17:28.620Z,290
2019-04-01T08:18:27.293Z,290
2019-04-01T08:19:28.173Z,290
2019-04-01T08:20:27.365Z,290
2019-04-01T08:21:27.783Z,295
2019-04-01T08:22:27.914Z,295
2019-04-01T08:23:27.715Z,295
2019-04-01T08:24:26.892Z,295
2019-04-01T08:25:28.001Z,295
2019-04-01T08:26:28.372Z,295
2019-04-01T08:27:28.237Z,295
2019-04-01T08:28:29.941Z,295
2019-04-01T08:29:41.836Z,295
2019-04-01T08:30:27.293Z,295
2019-04-01T08:31:26.754Z,295
2019-04-01T08:32:26.551Z,295
2019-04-01T08:33:27.164Z,295
2019-04-01T08:34:26.433Z,295
2019-04-01T08:35:26.673Z,300
2019-04-01T08:36:26.857Z,300
2019-04-01T08:37:26.980Z,300
2019-04-01T08:38:27.302Z,300
2019-04-01T08:39:26.193Z,300
2019-04-01T08:40:26.164Z,300
2019-04-01T08:41:27.881Z,300
2019-04-01T08:42:26.889Z,300
2019-04-01T08:43:26.461Z,300
2019-04-01T08:44:25.558Z,300
2019-04-01T08:45:26.917Z,300
2019-04-01T08:46:27.341Z,300
2019-04-01T08:47:27.543Z,300
2019-04-01T08:48:26.496Z,300
2019-04-01T08:49:26.085Z,305
2019-04-01T08:50:26.818Z,305
2019-04-01T08:51:27.778Z,305
2019-04-01T08:52:26.486Z,305
2019-04-01T08:53:25.361Z,305
2019-04-01T08:54:26.853Z,305
2019-04-01T08:55:27.625Z,305
2019-04-01T08:56:26.714Z,305
2019-04-01T08:57:27.313Z,305
2019-04-01T08:58:26.618Z,310
2019-04-01T08:59:26.837Z,305
2019-04-01T09:00:26.656Z,305
2019-04-01T09:01:40.026Z,305
2019-04-01T09:02:29.695Z,305
2019-04-01T09:03:26.772Z,310
2019-04-01T09:04:26.701Z,310
2019-04-01T09:05:27.049Z,310
2019-04-01T09:06:26.922Z,310
2019-04-01T09:07:27.330Z,310
2019-04-01T09:08:26.245Z,310
2019-04-01T09:09:25.856Z,310
2019-04-01T09:10:25.874Z,310
2019-04-01T09:11:25.616Z,310
2019-04-01T09:12:25.383Z,310
2019-04-01T09:13:26.404Z,310
2019-04-01T09:14:26.769Z,310
2019-04-01T09:15:25.668Z,310
2019-04-01T09:16:25.935Z,310
2019-04-01T09:17:26.594Z,310
2019-04-01T09:18:25.527Z,310
2019-04-01T09:19:25.565Z,310
2019-04-01T09:20:26.589Z,315
2019-04-01T09:21:26.274Z,315
2019-04-01T09:22:25.350Z,315
2019-04-01T09:23:25.778Z,315
2019-04-01T09:24:25.801Z,315
2019-04-01T09:25:25.225Z,315
2019-04-01T09:26:25.787Z,315
2019-04-01T09:27:26.449Z,315
2019-04-01T09:28:28.122Z,315
2019-04-01T09:29:26.610Z,315
2019-04-01T09:30:26.805Z,320
2019-04-01T09:31:25.907Z,315
2019-04-01T09:32:25.048Z,315
2019-04-01T09:33:24.627Z,315
2019-04-01T09:34:25.021Z,315
2019-04-01T09:35:26.076Z,315
2019-04-01T09:36:25.715Z,315
2019-04-01T09:37:25.489Z,315
2019-04-01T09:38:26.062Z,315
2019-04-01T09:39:25.200Z,315
2019-04-01T09:40:25.378Z,320
2019-04-01T09:41:24.844Z,320
2019-04-01T09:42:25.376Z,320
2019-04-01T09:43:27.488Z,320
2019-04-01T09:44:39.374Z,320
2019-04-01T09:45:25.397Z,320
2019-04-01T09:46:24.747Z,320
2019-04-01T09:47:25.700Z,320
2019-04-01T09:48:31.536Z,320
2019-04-01T09:49:25.878Z,320
2019-04-01T09:50:25.312Z,320
2019-04-01T09:51:24.258Z,320
2019-04-01T09:52:24.573Z,320
2019-04-01T09:53:25.220Z,320
2019-04-01T09:54:25.386Z,320
2019-04-01T09:55:24.769Z,320
2019-04-01T09:56:24.880Z,320
2019-04-01T09:57:29.740Z,320
2019-04-01T09:58:24.815Z,320
2019-04-01T09:59:25.625Z,320
2019-04-01T10:00:25.059Z,320
2019-04-01T10:01:25.923Z,325
2019-04-01T10:02:39.418Z,325
2019-04-01T10:03:24.815Z,325
2019-04-01T10:04:24.569Z,325
2019-04-01T10:05:24.577Z,325
2019-04-01T10:06:24.167Z,325
2019-04-01T10:07:23.555Z,325
2019-04-01T10:08:24.827Z,325
2019-04-01T10:09:25.247Z,325
2019-04-01T10:10:25.157Z,325
2019-04-01T10:11:23.272Z,325
2019-04-01T10:12:25.155Z,325
2019-04-01T10:13:25.045Z,325
2019-04-01T10:14:24.729Z,325
2019-04-01T10:15:24.616Z,330
2019-04-01T10:16:26.364Z,330
2019-04-01T10:17:24.762Z,330
2019-04-01T10:18:24.547Z,330
2019-04-01T10:19:26.532Z,330
2019-04-01T10:20:24.481Z,330
2019-04-01T10:21:23.179Z,330
2019-04-01T10:22:25.051Z,330
2019-04-01T10:23:25.620Z,335
2019-04-01T10:24:24.869Z,335
2019-04-01T10:25:25.090Z,335
2019-04-01T10:26:24.480Z,335
2019-04-01T10:27:25.166Z,335
2019-04-01T10:28:24.664Z,335
2019-04-01T10:29:25.082Z,335
2019-04-01T10:30:24.196Z,340
2019-04-01T10:31:22.795Z,335
2019-04-01T10:32:24.367Z,335
2019-04-01T10:33:23.532Z,335
2019-04-01T10:34:24.650Z,335
2019-04-01T10:35:25.268Z,335
2019-04-01T10:36:23.899Z,335
2019-04-01T10:37:24.749Z,335
2019-04-01T10:38:24.869Z,335
2019-04-01T10:39:24.300Z,335
2019-04-01T10:40:24.397Z,340
2019-04-01T10:41:24.741Z,340
2019-04-01T10:42:24.453Z,340
2019-04-01T10:43:23.182Z,340
2019-04-01T10:44:23.952Z,340
2019-04-01T10:45:25.253Z,340
2019-04-01T10:46:24.119Z,340
2019-04-01T10:47:24.964Z,340
2019-04-01T10:48:23.000Z,340
2019-04-01T10:49:24.960Z,340
2019-04-01T10:50:24.952Z,340
2019-04-01T10:51:24.757Z,340
2019-04-01T10:52:24.267Z,340
2019-04-01T10:53:23.630Z,340
2019-04-01T10:54:24.860Z,340
2019-04-01T10:55:25.311Z,340
2019-04-01T10:56:23.254Z,340
2019-04-01T10:57:24.430Z,340
2019-04-01T10:58:24.282Z,340
2019-04-01T10:59:23.622Z,340
2019-04-01T11:00:23.911Z,345
2019-04-01T11:01:22.997Z,345
2019-04-01T11:02:23.254Z,345
2019-04-01T11:03:21.277Z,345
2019-04-01T11:04:20.905Z,345
2019-04-01T11:05:21.256Z,345
2019-04-01T11:06:21.056Z,345
2019-04-01T11:07:21.229Z,345
2019-04-01T11:08:20.893Z,345
2019-04-01T11:09:21.195Z,345
2019-04-01T11:10:21.395Z,345
2019-04-01T11:11:20.859Z,345
2019-04-01T11:12:20.771Z,345
2019-04-01T11:13:21.803Z,345
2019-04-01T11:14:20.765Z,345
2019-04-01T11:15:25.173Z,345
2019-04-01T11:16:21.512Z,345
2019-04-01T11:17:22.110Z,350
2019-04-01T11:18:21.526Z,350
2019-04-01T11:19:20.621Z,355
2019-04-01T11:20:20.576Z,350
2019-04-01T11:21:20.667Z,350
2019-04-01T11:22:20.539Z,350
2019-04-01T11:23:20.520Z,350
2019-04-01T11:24:20.512Z,355
2019-04-01T11:25:20.491Z,350
2019-04-01T11:26:20.559Z,350
2019-04-01T11:27:20.492Z,350
2019-04-01T11:28:20.409Z,350
2019-04-01T11:29:20.389Z,350
2019-04-01T11:30:23.247Z,350
2019-04-01T11:31:20.543Z,350
2019-04-01T11:32:23.070Z,350
2019-04-01T11:33:20.508Z,350
2019-04-01T11:34:21.707Z,350
2019-04-01T11:35:21.232Z,350
2019-04-01T11:36:21.377Z,360
2019-04-01T11:37:20.316Z,350
2019-04-01T11:38:20.154Z,350
2019-04-01T11:39:20.468Z,350
2019-04-01T11:40:21.825Z,350
2019-04-01T11:41:20.207Z,350
2019-04-01T11:42:20.194Z,350
2019-04-01T11:43:20.413Z,350
2019-04-01T11:44:20.315Z,350
2019-04-01T11:45:20.234Z,350
2019-04-01T11:46:23.210Z,350
2019-04-01T11:47:22.049Z,350
2019-04-01T11:48:21.189Z,350
2019-04-01T11:49:20.367Z,350
2019-04-01T11:50:21.443Z,350
2019-04-01T11:51:39.394Z,350
2019-04-01T11:52:22.710Z,355
2019-04-01T11:53:19.871Z,350
2019-04-01T11:54:19.959Z,355
2019-04-01T11:55:19.803Z,355
2019-04-01T11:56:20.331Z,350
2019-04-01T11:57:21.743Z,350
2019-04-01T11:58:19.739Z,350
2019-04-01T11:59:19.706Z,350
2019-04-01T12:00:22.239Z,350
2019-04-01T12:01:19.661Z,350
2019-04-01T12:02:21.211Z,350
2019-04-01T12:03:19.921Z,350
2019-04-01T12:04:19.607Z,355
2019-04-01T12:05:19.629Z,350
2019-04-01T12:06:19.551Z,350
2019-04-01T12:07:19.285Z,350
2019-04-01T12:08:19.510Z,355
2019-04-01T12:09:19.491Z,355
2019-04-01T12:10:19.461Z,355
2019-04-01T12:11:19.846Z,355
2019-04-01T12:12:34.287Z,355
2019-04-01T12:13:19.396Z,355
2019-04-01T12:14:19.373Z,355
2019-04-01T12:15:21.910Z,360
2019-04-01T12:16:19.339Z,355
2019-04-01T12:17:19.312Z,355
2019-04-01T12:18:19.316Z,355
2019-04-01T12:19:22.902Z,355
2019-04-01T12:20:19.324Z,360
2019-04-01T12:21:19.397Z,360
2019-04-01T12:22:22.375Z,360
2019-04-01T12:23:19.432Z,360
2019-04-01T12:24:19.152Z,360
2019-04-01T12:25:19.221Z,360
2019-04-01T12:26:25.045Z,360
2019-04-01T12:27:19.150Z,360
2019-04-01T12:28:19.215Z,360
2019-04-01T12:29:21.899Z,360
2019-04-01T12:30:19.038Z,360
2019-04-01T12:31:24.037Z,360
2019-04-01T12:32:19.760Z,360
2019-04-01T12:33:19.939Z,360
2019-04-01T12:34:19.997Z,360
2019-04-01T12:35:19.289Z,360
2019-04-01T12:36:21.700Z,360
2019-04-01T12:37:18.888Z,360
2019-04-01T12:38:19.180Z,360
2019-04-01T12:39:18.981Z,365
2019-04-01T12:40:18.828Z,360
2019-04-01T12:41:19.052Z,360
2019-04-01T12:42:19.687Z,360
2019-04-01T12:43:23.375Z,360
2019-04-01T12:44:20.461Z,360
2019-04-01T12:45:19.954Z,365
2019-04-01T12:46:19.003Z,365
2019-04-01T12:47:18.665Z,365
2019-04-01T12:48:18.662Z,365
2019-04-01T12:49:18.624Z,365
2019-04-01T12:50:18.637Z,370
2019-04-01T12:51:18.579Z,365
2019-04-01T12:52:19.595Z,370
2019-04-01T12:53:19.393Z,365
2019-04-01T12:54:20.006Z,365
2019-04-01T12:55:18.327Z,365
2019-04-01T12:56:18.248Z,365
2019-04-01T12:57:21.369Z,365
2019-04-01T12:58:20.798Z,365
2019-04-01T12:59:18.416Z,365
2019-04-01T13:00:18.498Z,365
2019-04-01T13:01:18.375Z,365
2019-04-01T13:02:20.652Z,370
2019-04-01T13:03:18.675Z,365
2019-04-01T13:04:18.319Z,370
2019-04-01T13:05:18.352Z,365
2019-04-01T13:06:18.302Z,365
2019-04-01T13:07:18.253Z,365
2019-04-01T13:08:18.229Z,365
2019-04-01T13:09:17.962Z,365
2019-04-01T13:10:18.291Z,365
2019-04-01T13:11:19.316Z,365
2019-04-01T13:12:18.209Z,365
2019-04-01T13:13:22.687Z,365
2019-04-01T13:14:18.754Z,370
2019-04-01T13:15:19.641Z,370
2019-04-01T13:16:18.634Z,370
2019-04-01T13:17:18.059Z,370
2019-04-01T13:18:18.171Z,365
2019-04-01T13:19:18.375Z,365
2019-04-01T13:20:19.011Z,365
2019-04-01T13:21:18.241Z,365
2019-04-01T13:22:18.855Z,365
2019-04-01T13:23:18.396Z,365
2019-04-01T13:24:17.659Z,365
2019-04-01T13:25:17.881Z,365
2019-04-01T13:26:17.853Z,370
2019-04-01T13:27:18.799Z,370
2019-04-01T13:28:17.827Z,370
2019-04-01T13:29:17.810Z,370
2019-04-01T13:30:17.785Z,370
2019-04-01T13:31:17.754Z,370
2019-04-01T13:32:17.838Z,375
2019-04-01T13:33:19.429Z,370
2019-04-01T13:34:20.069Z,370
2019-04-01T13:35:17.692Z,370
2019-04-01T13:36:17.747Z,370
2019-04-01T13:37:18.360Z,370
2019-04-01T13:38:22.141Z,370
2019-04-01T13:39:18.656Z,370
2019-04-01T13:40:19.580Z,370
2019-04-01T13:41:20.861Z,370
2019-04-01T13:42:19.298Z,370
2019-04-01T13:43:21.686Z,370
2019-04-01T13:44:18.545Z,370
2019-04-01T13:45:17.478Z,370
2019-04-01T13:46:18.383Z,370
2019-04-01T13:47:18.399Z,370
2019-04-01T13:48:17.407Z,370
2019-04-01T13:49:17.392Z,370
2019-04-01T13:50:21.183Z,370
2019-04-01T13:51:17.353Z,370
2019-04-01T13:52:17.329Z,370
2019-04-01T13:53:17.306Z,370
2019-04-01T13:54:20.359Z,370
2019-04-01T13:55:17.421Z,370
2019-04-01T13:56:19.731Z,370
2019-04-01T13:57:18.212Z,370
2019-04-01T13:58:20.027Z,370
2019-04-01T13:59:22.271Z,365
2019-04-01T14:00:20.203Z,365
2019-04-01T14:01:17.635Z,365
2019-04-01T14:02:17.191Z,365
2019-04-01T14:03:20.610Z,365
2019-04-01T14:04:17.078Z,365
2019-04-01T14:05:17.073Z,365
2019-04-01T14:06:17.043Z,365
2019-04-01T14:07:17.022Z,365
2019-04-01T14:08:17.012Z,365